Aérodrome :
LOGIN :

S'inscrire | Disclaimer

   EN    FR    IT 

 










Légende :    VFR   VFR Marginal   IFR   IFR Intensif   IFR Très Intensif
Visi : 
Plafond : 
>= 8 km
>= 3000ft
5 à 8 km
1000 à 3000 ft
1500m à 5 km
500 à 1000 ft
800 à 1500m
200 à 500 ft
< 800m
< 200 ft
Symboles :   Orages  Brouillard  Fortes neiges  Fortes précipitations  Vent > 20 kt
SIGMETs :   Divers  Orages  Givrage  Turbulence  Onde Orograph.  Cendres Volcan.






- Altitude de l'aérodrome : 1249 ft


ETSN - Neuburg AB

DERNIER METAR :
  • 290420Z VRB01KT 9999 MIFG FEW001 SCT140 BKN240 09/08 Q1017 BLU+BLU+

METARs EXPIRÉS :
  • 290320Z 05001KT 9999 MIFG FEW110 SCT160 BKN200 08/07 Q1017 BLU+
  • 290220Z 04001KT 9999 MIFG BKN200 08/07 Q1018 BLU+
  • 290120Z 05001KT 9999 MIFG BKN240 08/08 Q1018 BLU+
  • 290020Z 02001KT 9999 SCT250 09/08 Q1019 BLU+

TAF TAF ETSN
Valide du 29 à 05h jusqu'au 29 à 14h UTC


290418Z 2905/2914 VRB03KT 9999 NSW SCT100 BKN150



MET'MAP, la Météo Aéronautique d'un coup d'oeil ! - Copyright ORBIFLY Décembre 2007 - Disclaimer

ORBIFLY MET'MAP TEAM :

Programmation & Développement : Alexandra Zaïnal
Sur une idée originale de : Baudouin d'Aumeries
Soutien technique & logistique : Manuel Goepfert
Assistance : Marc-Olivier Méhu




SOURCES & CREDITS :

   NOAA